sensor_id;sensor_type;location;lat;lon;timestamp;temperature;humidity
66119;DHT22;52912;48.564;9.302;2024-01-25T00:01:57;8.91;90.80
66119;DHT22;52912;48.564;9.302;2024-01-25T00:04:22;8.93;90.76
66119;DHT22;52912;48.564;9.302;2024-01-25T00:06:48;8.85;90.99
66119;DHT22;52912;48.564;9.302;2024-01-25T00:09:13;8.81;91.34
66119;DHT22;52912;48.564;9.302;2024-01-25T00:11:39;8.81;91.21
66119;DHT22;52912;48.564;9.302;2024-01-25T00:14:04;8.82;91.25
66119;DHT22;52912;48.564;9.302;2024-01-25T00:16:30;8.80;91.60
66119;DHT22;52912;48.564;9.302;2024-01-25T00:18:56;8.81;91.31
66119;DHT22;52912;48.564;9.302;2024-01-25T00:21:22;8.78;91.54
66119;DHT22;52912;48.564;9.302;2024-01-25T00:23:50;8.84;91.44
66119;DHT22;52912;48.564;9.302;2024-01-25T00:26:16;8.78;91.52
66119;DHT22;52912;48.564;9.302;2024-01-25T00:28:41;8.75;91.52
66119;DHT22;52912;48.564;9.302;2024-01-25T00:31:06;8.84;91.37
66119;DHT22;52912;48.564;9.302;2024-01-25T00:33:32;8.75;91.61
66119;DHT22;52912;48.564;9.302;2024-01-25T00:35:59;8.81;91.49
66119;DHT22;52912;48.564;9.302;2024-01-25T00:38:26;8.74;91.76
66119;DHT22;52912;48.564;9.302;2024-01-25T00:40:51;8.74;91.86
66119;DHT22;52912;48.564;9.302;2024-01-25T00:43:18;8.78;92.02
66119;DHT22;52912;48.564;9.302;2024-01-25T00:45:43;8.74;92.25
66119;DHT22;52912;48.564;9.302;2024-01-25T00:48:10;8.73;92.45
66119;DHT22;52912;48.564;9.302;2024-01-25T00:50:37;8.68;92.86
66119;DHT22;52912;48.564;9.302;2024-01-25T00:53:05;8.65;93.19
66119;DHT22;52912;48.564;9.302;2024-01-25T00:55:31;8.71;92.87
66119;DHT22;52912;48.564;9.302;2024-01-25T00:57:57;8.67;92.70
66119;DHT22;52912;48.564;9.302;2024-01-25T01:00:23;8.70;92.58
66119;DHT22;52912;48.564;9.302;2024-01-25T01:02:49;8.67;92.77
66119;DHT22;52912;48.564;9.302;2024-01-25T01:05:15;8.65;92.76
66119;DHT22;52912;48.564;9.302;2024-01-25T01:07:41;8.67;92.75
66119;DHT22;52912;48.564;9.302;2024-01-25T01:10:23;8.68;92.55
66119;DHT22;52912;48.564;9.302;2024-01-25T01:12:49;8.64;92.64
66119;DHT22;52912;48.564;9.302;2024-01-25T01:15:14;8.61;92.87
66119;DHT22;52912;48.564;9.302;2024-01-25T01:17:40;8.63;92.72
66119;DHT22;52912;48.564;9.302;2024-01-25T01:20:06;8.71;92.17
66119;DHT22;52912;48.564;9.302;2024-01-25T01:22:32;8.65;92.77
66119;DHT22;52912;48.564;9.302;2024-01-25T01:24:57;8.67;92.44
66119;DHT22;52912;48.564;9.302;2024-01-25T01:27:24;8.67;92.39
66119;DHT22;52912;48.564;9.302;2024-01-25T01:29:49;8.64;92.39
66119;DHT22;52912;48.564;9.302;2024-01-25T01:32:15;8.64;92.33
66119;DHT22;52912;48.564;9.302;2024-01-25T01:34:40;8.65;92.35
66119;DHT22;52912;48.564;9.302;2024-01-25T01:37:06;8.65;92.46
66119;DHT22;52912;48.564;9.302;2024-01-25T01:39:31;8.64;92.64
66119;DHT22;52912;48.564;9.302;2024-01-25T01:41:57;8.75;92.70
66119;DHT22;52912;48.564;9.302;2024-01-25T01:44:23;8.65;92.90
66119;DHT22;52912;48.564;9.302;2024-01-25T01:46:49;8.60;93.17
66119;DHT22;52912;48.564;9.302;2024-01-25T01:49:15;8.65;93.57
66119;DHT22;52912;48.564;9.302;2024-01-25T01:51:41;8.64;93.93
66119;DHT22;52912;48.564;9.302;2024-01-25T01:54:07;8.56;94.42
66119;DHT22;52912;48.564;9.302;2024-01-25T01:56:33;8.52;94.83
66119;DHT22;52912;48.564;9.302;2024-01-25T01:58:59;8.49;94.99
66119;DHT22;52912;48.564;9.302;2024-01-25T02:01:26;8.49;95.17
66119;DHT22;52912;48.564;9.302;2024-01-25T02:03:52;8.46;95.10
66119;DHT22;52912;48.564;9.302;2024-01-25T02:06:18;8.47;95.15
66119;DHT22;52912;48.564;9.302;2024-01-25T02:08:44;8.45;95.19
66119;DHT22;52912;48.564;9.302;2024-01-25T02:11:11;8.46;95.22
66119;DHT22;52912;48.564;9.302;2024-01-25T02:13:37;8.40;95.23
66119;DHT22;52912;48.564;9.302;2024-01-25T02:16:03;8.46;95.06
66119;DHT22;52912;48.564;9.302;2024-01-25T02:18:30;8.42;95.23
66119;DHT22;52912;48.564;9.302;2024-01-25T02:20:56;8.50;95.06
66119;DHT22;52912;48.564;9.302;2024-01-25T02:23:22;8.50;94.94
66119;DHT22;52912;48.564;9.302;2024-01-25T02:25:48;8.52;95.10
66119;DHT22;52912;48.564;9.302;2024-01-25T02:28:13;8.57;94.81
66119;DHT22;52912;48.564;9.302;2024-01-25T02:30:39;8.57;94.83
66119;DHT22;52912;48.564;9.302;2024-01-25T02:33:04;8.68;94.46
66119;DHT22;52912;48.564;9.302;2024-01-25T02:35:30;8.71;94.41
66119;DHT22;52912;48.564;9.302;2024-01-25T02:37:55;8.65;94.30
66119;DHT22;52912;48.564;9.302;2024-01-25T02:40:22;8.60;94.28
66119;DHT22;52912;48.564;9.302;2024-01-25T02:42:47;8.57;94.50
66119;DHT22;52912;48.564;9.302;2024-01-25T02:45:13;8.57;94.37
66119;DHT22;52912;48.564;9.302;2024-01-25T02:47:38;8.56;94.41
66119;DHT22;52912;48.564;9.302;2024-01-25T02:50:05;8.54;94.52
66119;DHT22;52912;48.564;9.302;2024-01-25T02:52:30;8.54;94.90
66119;DHT22;52912;48.564;9.302;2024-01-25T02:54:55;8.56;95.09
66119;DHT22;52912;48.564;9.302;2024-01-25T02:57:22;8.47;95.59
66119;DHT22;52912;48.564;9.302;2024-01-25T02:59:53;8.42;96.22
66119;DHT22;52912;48.564;9.302;2024-01-25T03:02:18;8.36;96.52
66119;DHT22;52912;48.564;9.302;2024-01-25T03:04:43;8.36;96.74
66119;DHT22;52912;48.564;9.302;2024-01-25T03:07:09;8.32;96.93
66119;DHT22;52912;48.564;9.302;2024-01-25T03:09:34;8.35;97.05
66119;DHT22;52912;48.564;9.302;2024-01-25T03:12:00;8.33;96.60
66119;DHT22;52912;48.564;9.302;2024-01-25T03:14:35;8.37;96.55
66119;DHT22;52912;48.564;9.302;2024-01-25T03:17:01;8.32;97.08
66119;DHT22;52912;48.564;9.302;2024-01-25T03:19:27;8.28;97.40
66119;DHT22;52912;48.564;9.302;2024-01-25T03:21:53;8.28;97.61
66119;DHT22;52912;48.564;9.302;2024-01-25T03:24:19;8.26;97.63
66119;DHT22;52912;48.564;9.302;2024-01-25T03:26:44;8.29;97.51
66119;DHT22;52912;48.564;9.302;2024-01-25T03:29:09;8.28;97.65
66119;DHT22;52912;48.564;9.302;2024-01-25T03:31:36;8.28;97.82
66119;DHT22;52912;48.564;9.302;2024-01-25T03:34:02;8.21;98.09
66119;DHT22;52912;48.564;9.302;2024-01-25T03:36:27;8.16;98.21
66119;DHT22;52912;48.564;9.302;2024-01-25T03:38:53;8.12;98.66
66119;DHT22;52912;48.564;9.302;2024-01-25T03:41:18;8.08;98.73
66119;DHT22;52912;48.564;9.302;2024-01-25T03:43:43;8.06;98.79
66119;DHT22;52912;48.564;9.302;2024-01-25T03:46:09;8.06;98.47
66119;DHT22;52912;48.564;9.302;2024-01-25T03:48:36;8.08;98.44
66119;DHT22;52912;48.564;9.302;2024-01-25T03:51:01;8.06;98.36
66119;DHT22;52912;48.564;9.302;2024-01-25T03:53:26;8.19;98.03
66119;DHT22;52912;48.564;9.302;2024-01-25T03:55:52;8.11;98.06
66119;DHT22;52912;48.564;9.302;2024-01-25T03:58:18;8.11;98.21
66119;DHT22;52912;48.564;9.302;2024-01-25T04:00:43;8.05;98.25
66119;DHT22;52912;48.564;9.302;2024-01-25T04:03:09;8.11;98.16
66119;DHT22;52912;48.564;9.302;2024-01-25T04:05:36;8.12;97.79
66119;DHT22;52912;48.564;9.302;2024-01-25T04:08:02;8.18;97.75
66119;DHT22;52912;48.564;9.302;2024-01-25T04:10:28;8.15;97.89
66119;DHT22;52912;48.564;9.302;2024-01-25T04:12:53;8.13;97.81
66119;DHT22;52912;48.564;9.302;2024-01-25T04:15:19;8.12;98.00
66119;DHT22;52912;48.564;9.302;2024-01-25T04:17:44;8.11;98.13
66119;DHT22;52912;48.564;9.302;2024-01-25T04:20:10;8.11;98.44
66119;DHT22;52912;48.564;9.302;2024-01-25T04:22:37;8.03;98.76
66119;DHT22;52912;48.564;9.302;2024-01-25T04:25:03;8.13;98.84
66119;DHT22;52912;48.564;9.302;2024-01-25T04:27:29;8.01;99.06
66119;DHT22;52912;48.564;9.302;2024-01-25T04:29:54;8.01;98.82
66119;DHT22;52912;48.564;9.302;2024-01-25T04:32:20;8.02;99.07
66119;DHT22;52912;48.564;9.302;2024-01-25T04:34:45;8.06;99.04
66119;DHT22;52912;48.564;9.302;2024-01-25T04:37:11;7.99;99.29
66119;DHT22;52912;48.564;9.302;2024-01-25T04:39:38;8.02;99.25
66119;DHT22;52912;48.564;9.302;2024-01-25T04:42:04;8.02;99.26
66119;DHT22;52912;48.564;9.302;2024-01-25T04:44:29;8.08;98.52
66119;DHT22;52912;48.564;9.302;2024-01-25T04:46:55;8.12;97.51
66119;DHT22;52912;48.564;9.302;2024-01-25T04:49:20;8.15;97.37
66119;DHT22;52912;48.564;9.302;2024-01-25T04:51:45;8.16;97.22
66119;DHT22;52912;48.564;9.302;2024-01-25T04:54:11;8.13;97.26
66119;DHT22;52912;48.564;9.302;2024-01-25T04:56:38;8.08;97.43
66119;DHT22;52912;48.564;9.302;2024-01-25T04:59:03;8.06;97.25
66119;DHT22;52912;48.564;9.302;2024-01-25T05:01:29;8.11;97.19
66119;DHT22;52912;48.564;9.302;2024-01-25T05:03:54;8.08;97.23
66119;DHT22;52912;48.564;9.302;2024-01-25T05:06:20;8.05;97.49
66119;DHT22;52912;48.564;9.302;2024-01-25T05:08:45;8.12;97.49
66119;DHT22;52912;48.564;9.302;2024-01-25T05:11:10;8.05;97.65
66119;DHT22;52912;48.564;9.302;2024-01-25T05:13:37;8.08;97.76
66119;DHT22;52912;48.564;9.302;2024-01-25T05:16:03;8.01;98.06
66119;DHT22;52912;48.564;9.302;2024-01-25T05:18:29;8.01;98.16
66119;DHT22;52912;48.564;9.302;2024-01-25T05:20:54;7.99;98.48
66119;DHT22;52912;48.564;9.302;2024-01-25T05:23:20;8.05;98.85
66119;DHT22;52912;48.564;9.302;2024-01-25T05:25:45;8.01;98.98
66119;DHT22;52912;48.564;9.302;2024-01-25T05:28:10;8.01;98.95
66119;DHT22;52912;48.564;9.302;2024-01-25T05:30:37;7.91;99.29
66119;DHT22;52912;48.564;9.302;2024-01-25T05:33:03;7.92;99.39
66119;DHT22;52912;48.564;9.302;2024-01-25T05:35:29;7.97;99.18
66119;DHT22;52912;48.564;9.302;2024-01-25T05:37:54;7.97;99.15
66119;DHT22;52912;48.564;9.302;2024-01-25T05:40:20;7.92;99.17
66119;DHT22;52912;48.564;9.302;2024-01-25T05:42:45;7.87;99.16
66119;DHT22;52912;48.564;9.302;2024-01-25T05:45:11;7.91;99.04
66119;DHT22;52912;48.564;9.302;2024-01-25T05:47:37;7.95;99.05
66119;DHT22;52912;48.564;9.302;2024-01-25T05:50:03;7.85;99.29
66119;DHT22;52912;48.564;9.302;2024-01-25T05:52:29;7.83;99.55
66119;DHT22;52912;48.564;9.302;2024-01-25T05:54:54;7.81;99.58
66119;DHT22;52912;48.564;9.302;2024-01-25T05:57:20;7.78;99.65
66119;DHT22;52912;48.564;9.302;2024-01-25T05:59:45;7.83;99.32
66119;DHT22;52912;48.564;9.302;2024-01-25T06:02:11;7.75;99.47
66119;DHT22;52912;48.564;9.302;2024-01-25T06:04:38;7.83;99.16
66119;DHT22;52912;48.564;9.302;2024-01-25T06:07:03;7.90;99.03
66119;DHT22;52912;48.564;9.302;2024-01-25T06:09:29;7.78;98.91
66119;DHT22;52912;48.564;9.302;2024-01-25T06:11:54;7.71;98.56
66119;DHT22;52912;48.564;9.302;2024-01-25T06:14:20;7.67;98.00
66119;DHT22;52912;48.564;9.302;2024-01-25T06:16:45;7.70;97.82
66119;DHT22;52912;48.564;9.302;2024-01-25T06:19:11;7.63;97.84
66119;DHT22;52912;48.564;9.302;2024-01-25T06:21:37;7.55;97.93
66119;DHT22;52912;48.564;9.302;2024-01-25T06:24:04;7.55;97.79
66119;DHT22;52912;48.564;9.302;2024-01-25T06:26:29;7.55;97.00
66119;DHT22;52912;48.564;9.302;2024-01-25T06:28:55;7.47;96.97
66119;DHT22;52912;48.564;9.302;2024-01-25T06:31:20;7.50;96.76
66119;DHT22;52912;48.564;9.302;2024-01-25T06:33:46;7.40;96.67
66119;DHT22;52912;48.564;9.302;2024-01-25T06:36:11;7.30;96.63
66119;DHT22;52912;48.564;9.302;2024-01-25T06:38:38;7.36;96.57
66119;DHT22;52912;48.564;9.302;2024-01-25T06:41:03;7.33;96.00
66119;DHT22;52912;48.564;9.302;2024-01-25T06:43:29;7.28;95.76
66119;DHT22;52912;48.564;9.302;2024-01-25T06:45:54;7.23;95.98
66119;DHT22;52912;48.564;9.302;2024-01-25T06:48:20;7.19;95.70
66119;DHT22;52912;48.564;9.302;2024-01-25T06:50:45;7.07;95.85
66119;DHT22;52912;48.564;9.302;2024-01-25T06:53:14;7.09;95.65
66119;DHT22;52912;48.564;9.302;2024-01-25T06:55:40;7.02;95.65
66119;DHT22;52912;48.564;9.302;2024-01-25T06:58:06;6.90;96.02
66119;DHT22;52912;48.564;9.302;2024-01-25T07:00:31;6.84;96.13
66119;DHT22;52912;48.564;9.302;2024-01-25T07:02:57;6.83;96.38
66119;DHT22;52912;48.564;9.302;2024-01-25T07:05:22;6.70;96.49
66119;DHT22;52912;48.564;9.302;2024-01-25T07:07:48;6.70;96.65
66119;DHT22;52912;48.564;9.302;2024-01-25T07:10:13;6.69;96.62
66119;DHT22;52912;48.564;9.302;2024-01-25T07:12:40;6.54;96.76
66119;DHT22;52912;48.564;9.302;2024-01-25T07:15:06;6.49;96.97
66119;DHT22;52912;48.564;9.302;2024-01-25T07:17:31;6.48;97.14
66119;DHT22;52912;48.564;9.302;2024-01-25T07:19:57;6.48;96.94
66119;DHT22;52912;48.564;9.302;2024-01-25T07:22:22;6.46;97.04
66119;DHT22;52912;48.564;9.302;2024-01-25T07:24:48;6.49;96.98
66119;DHT22;52912;48.564;9.302;2024-01-25T07:27:13;6.46;97.05
66119;DHT22;52912;48.564;9.302;2024-01-25T07:29:43;6.45;97.11
66119;DHT22;52912;48.564;9.302;2024-01-25T07:32:08;6.48;97.21
66119;DHT22;52912;48.564;9.302;2024-01-25T07:34:34;6.43;97.42
66119;DHT22;52912;48.564;9.302;2024-01-25T07:36:59;6.45;97.58
66119;DHT22;52912;48.564;9.302;2024-01-25T07:39:25;6.43;97.52
66119;DHT22;52912;48.564;9.302;2024-01-25T07:41:51;6.52;97.52
66119;DHT22;52912;48.564;9.302;2024-01-25T07:44:16;6.54;97.39
66119;DHT22;52912;48.564;9.302;2024-01-25T07:46:43;6.56;97.28
66119;DHT22;52912;48.564;9.302;2024-01-25T07:49:08;6.62;97.38
66119;DHT22;52912;48.564;9.302;2024-01-25T07:51:34;6.69;97.12
66119;DHT22;52912;48.564;9.302;2024-01-25T07:53:59;6.77;96.91
66119;DHT22;52912;48.564;9.302;2024-01-25T07:56:25;6.76;96.87
66119;DHT22;52912;48.564;9.302;2024-01-25T07:58:50;6.79;96.66
66119;DHT22;52912;48.564;9.302;2024-01-25T08:01:17;6.79;96.73
66119;DHT22;52912;48.564;9.302;2024-01-25T08:03:44;6.85;96.51
66119;DHT22;52912;48.564;9.302;2024-01-25T08:06:09;6.84;96.86
66119;DHT22;52912;48.564;9.302;2024-01-25T08:08:35;6.88;96.80
66119;DHT22;52912;48.564;9.302;2024-01-25T08:11:00;6.91;96.79
66119;DHT22;52912;48.564;9.302;2024-01-25T08:13:26;6.94;96.83
66119;DHT22;52912;48.564;9.302;2024-01-25T08:15:51;7.02;96.76
66119;DHT22;52912;48.564;9.302;2024-01-25T08:18:17;7.09;96.54
66119;DHT22;52912;48.564;9.302;2024-01-25T08:20:44;7.18;96.47
66119;DHT22;52912;48.564;9.302;2024-01-25T08:23:09;7.26;96.21
66119;DHT22;52912;48.564;9.302;2024-01-25T08:25:35;7.33;95.97
66119;DHT22;52912;48.564;9.302;2024-01-25T08:28:00;7.38;95.58
66119;DHT22;52912;48.564;9.302;2024-01-25T08:30:25;7.47;95.50
66119;DHT22;52912;48.564;9.302;2024-01-25T08:32:51;7.59;94.94
66119;DHT22;52912;48.564;9.302;2024-01-25T08:35:16;7.64;94.77
66119;DHT22;52912;48.564;9.302;2024-01-25T08:37:43;7.74;94.50
66119;DHT22;52912;48.564;9.302;2024-01-25T08:40:10;7.91;94.20
66119;DHT22;52912;48.564;9.302;2024-01-25T08:42:36;8.02;94.05
66119;DHT22;52912;48.564;9.302;2024-01-25T08:45:01;8.16;93.36
66119;DHT22;52912;48.564;9.302;2024-01-25T08:47:27;8.29;92.86
66119;DHT22;52912;48.564;9.302;2024-01-25T08:49:52;8.46;92.64
66119;DHT22;52912;48.564;9.302;2024-01-25T08:52:18;8.54;92.04
66119;DHT22;52912;48.564;9.302;2024-01-25T08:54:44;8.73;91.95
66119;DHT22;52912;48.564;9.302;2024-01-25T08:57:12;8.89;91.55
66119;DHT22;52912;48.564;9.302;2024-01-25T08:59:37;9.09;90.69
66119;DHT22;52912;48.564;9.302;2024-01-25T09:02:03;9.35;90.25
66119;DHT22;52912;48.564;9.302;2024-01-25T09:04:29;9.47;89.70
66119;DHT22;52912;48.564;9.302;2024-01-25T09:06:54;9.61;89.16
66119;DHT22;52912;48.564;9.302;2024-01-25T09:09:19;9.77;88.67
66119;DHT22;52912;48.564;9.302;2024-01-25T09:11:46;9.92;88.17
66119;DHT22;52912;48.564;9.302;2024-01-25T09:14:12;10.03;87.82
66119;DHT22;52912;48.564;9.302;2024-01-25T09:16:37;10.06;87.52
66119;DHT22;52912;48.564;9.302;2024-01-25T09:19:02;10.23;87.50
66119;DHT22;52912;48.564;9.302;2024-01-25T09:21:28;10.39;86.84
66119;DHT22;52912;48.564;9.302;2024-01-25T09:23:53;10.50;86.57
66119;DHT22;52912;48.564;9.302;2024-01-25T09:26:19;10.71;86.60
66119;DHT22;52912;48.564;9.302;2024-01-25T09:28:46;10.57;86.11
66119;DHT22;52912;48.564;9.302;2024-01-25T09:31:11;10.75;85.71
66119;DHT22;52912;48.564;9.302;2024-01-25T09:33:36;10.95;85.65
66119;DHT22;52912;48.564;9.302;2024-01-25T09:36:02;11.09;85.05
66119;DHT22;52912;48.564;9.302;2024-01-25T09:38:28;10.85;84.35
66119;DHT22;52912;48.564;9.302;2024-01-25T09:40:53;11.16;84.74
66119;DHT22;52912;48.564;9.302;2024-01-25T09:43:19;11.20;84.20
66119;DHT22;52912;48.564;9.302;2024-01-25T09:45:46;11.37;83.11
66119;DHT22;52912;48.564;9.302;2024-01-25T09:48:14;11.22;83.81
66119;DHT22;52912;48.564;9.302;2024-01-25T09:50:39;11.57;83.37
66119;DHT22;52912;48.564;9.302;2024-01-25T09:53:05;11.77;82.81
66119;DHT22;52912;48.564;9.302;2024-01-25T09:55:32;11.71;82.56
66119;DHT22;52912;48.564;9.302;2024-01-25T09:58:00;11.99;82.19
66119;DHT22;52912;48.564;9.302;2024-01-25T10:00:26;12.11;81.30
66119;DHT22;52912;48.564;9.302;2024-01-25T10:02:53;11.96;81.24
66119;DHT22;52912;48.564;9.302;2024-01-25T10:05:18;12.08;80.56
66119;DHT22;52912;48.564;9.302;2024-01-25T10:07:45;12.29;80.70
66119;DHT22;52912;48.564;9.302;2024-01-25T10:10:12;12.18;79.84
66119;DHT22;52912;48.564;9.302;2024-01-25T10:12:39;12.09;81.21
66119;DHT22;52912;48.564;9.302;2024-01-25T10:15:06;11.23;81.18
66119;DHT22;52912;48.564;9.302;2024-01-25T10:17:31;11.18;82.96
66119;DHT22;52912;48.564;9.302;2024-01-25T10:19:58;11.02;83.26
66119;DHT22;52912;48.564;9.302;2024-01-25T10:22:24;10.85;83.31
66119;DHT22;52912;48.564;9.302;2024-01-25T10:24:50;10.81;83.08
66119;DHT22;52912;48.564;9.302;2024-01-25T10:27:16;10.65;83.21
66119;DHT22;52912;48.564;9.302;2024-01-25T10:29:41;10.59;83.76
66119;DHT22;52912;48.564;9.302;2024-01-25T10:32:08;10.80;83.82
66119;DHT22;52912;48.564;9.302;2024-01-25T10:34:35;10.67;83.61
66119;DHT22;52912;48.564;9.302;2024-01-25T10:37:02;10.65;83.98
66119;DHT22;52912;48.564;9.302;2024-01-25T10:39:29;11.05;83.37
66119;DHT22;52912;48.564;9.302;2024-01-25T10:41:56;11.15;82.95
66119;DHT22;52912;48.564;9.302;2024-01-25T10:44:21;11.15;82.82
66119;DHT22;52912;48.564;9.302;2024-01-25T10:46:47;11.25;83.31
66119;DHT22;52912;48.564;9.302;2024-01-25T10:49:13;11.75;82.65
66119;DHT22;52912;48.564;9.302;2024-01-25T10:51:39;11.56;81.58
66119;DHT22;52912;48.564;9.302;2024-01-25T10:54:07;11.19;82.58
66119;DHT22;52912;48.564;9.302;2024-01-25T10:56:34;11.11;82.52
66119;DHT22;52912;48.564;9.302;2024-01-25T10:59:00;11.06;82.33
66119;DHT22;52912;48.564;9.302;2024-01-25T11:01:26;10.72;82.48
66119;DHT22;52912;48.564;9.302;2024-01-25T11:03:52;10.67;83.03
66119;DHT22;52912;48.564;9.302;2024-01-25T11:06:20;10.43;83.38
66119;DHT22;52912;48.564;9.302;2024-01-25T11:08:46;10.39;83.94
66119;DHT22;52912;48.564;9.302;2024-01-25T11:11:14;10.33;83.90
66119;DHT22;52912;48.564;9.302;2024-01-25T11:13:40;10.28;83.85
66119;DHT22;52912;48.564;9.302;2024-01-25T11:16:13;10.49;84.35
66119;DHT22;52912;48.564;9.302;2024-01-25T11:18:48;10.36;84.96
66119;DHT22;52912;48.564;9.302;2024-01-25T11:21:22;10.43;84.80
66119;DHT22;52912;48.564;9.302;2024-01-25T11:23:47;10.28;84.38
66119;DHT22;52912;48.564;9.302;2024-01-25T11:26:15;10.40;84.85
66119;DHT22;52912;48.564;9.302;2024-01-25T11:28:40;10.49;84.63
66119;DHT22;52912;48.564;9.302;2024-01-25T11:31:07;10.49;85.00
66119;DHT22;52912;48.564;9.302;2024-01-25T11:33:32;10.49;85.08
66119;DHT22;52912;48.564;9.302;2024-01-25T11:35:59;10.52;84.51
66119;DHT22;52912;48.564;9.302;2024-01-25T11:38:24;10.50;82.79
66119;DHT22;52912;48.564;9.302;2024-01-25T11:40:50;11.22;82.60
66119;DHT22;52912;48.564;9.302;2024-01-25T11:43:17;12.02;80.14
66119;DHT22;52912;48.564;9.302;2024-01-25T11:45:42;12.34;78.44
66119;DHT22;52912;48.564;9.302;2024-01-25T11:48:08;12.69;78.13
66119;DHT22;52912;48.564;9.302;2024-01-25T11:50:33;12.95;77.60
66119;DHT22;52912;48.564;9.302;2024-01-25T11:52:59;12.37;77.49
66119;DHT22;52912;48.564;9.302;2024-01-25T11:55:25;12.05;78.63
66119;DHT22;52912;48.564;9.302;2024-01-25T11:57:50;12.08;79.18
66119;DHT22;52912;48.564;9.302;2024-01-25T12:00:18;11.46;79.56
66119;DHT22;52912;48.564;9.302;2024-01-25T12:02:44;11.39;80.70
66119;DHT22;52912;48.564;9.302;2024-01-25T12:05:10;11.30;81.29
66119;DHT22;52912;48.564;9.302;2024-01-25T12:07:36;11.33;81.78
66119;DHT22;52912;48.564;9.302;2024-01-25T12:10:04;11.34;81.97
66119;DHT22;52912;48.564;9.302;2024-01-25T12:12:29;11.18;82.19
66119;DHT22;52912;48.564;9.302;2024-01-25T12:14:58;10.95;82.93
66119;DHT22;52912;48.564;9.302;2024-01-25T12:17:26;11.02;83.12
66119;DHT22;52912;48.564;9.302;2024-01-25T12:19:54;11.30;82.89
66119;DHT22;52912;48.564;9.302;2024-01-25T12:22:20;11.19;82.78
66119;DHT22;52912;48.564;9.302;2024-01-25T12:24:45;11.88;81.00
66119;DHT22;52912;48.564;9.302;2024-01-25T12:27:11;12.36;79.71
66119;DHT22;52912;48.564;9.302;2024-01-25T12:29:36;11.91;80.79
66119;DHT22;52912;48.564;9.302;2024-01-25T12:32:02;11.78;80.36
66119;DHT22;52912;48.564;9.302;2024-01-25T12:34:29;12.65;78.64
66119;DHT22;52912;48.564;9.302;2024-01-25T12:36:54;12.92;77.65
66119;DHT22;52912;48.564;9.302;2024-01-25T12:39:20;13.65;75.61
66119;DHT22;52912;48.564;9.302;2024-01-25T12:41:45;14.25;74.36
66119;DHT22;52912;48.564;9.302;2024-01-25T12:44:11;13.99;74.20
66119;DHT22;52912;48.564;9.302;2024-01-25T12:46:36;13.53;74.74
66119;DHT22;52912;48.564;9.302;2024-01-25T12:49:02;13.53;74.75
66119;DHT22;52912;48.564;9.302;2024-01-25T12:51:28;13.85;74.71
66119;DHT22;52912;48.564;9.302;2024-01-25T12:53:54;13.95;74.38
66119;DHT22;52912;48.564;9.302;2024-01-25T12:56:19;14.29;73.54
66119;DHT22;52912;48.564;9.302;2024-01-25T12:58:45;14.44;73.03
66119;DHT22;52912;48.564;9.302;2024-01-25T13:01:11;14.60;73.20
66119;DHT22;52912;48.564;9.302;2024-01-25T13:03:36;14.88;73.02
66119;DHT22;52912;48.564;9.302;2024-01-25T13:06:01;14.85;72.33
66119;DHT22;52912;48.564;9.302;2024-01-25T13:08:28;14.67;72.91
66119;DHT22;52912;48.564;9.302;2024-01-25T13:10:54;15.10;72.33
66119;DHT22;52912;48.564;9.302;2024-01-25T13:13:19;14.99;71.42
66119;DHT22;52912;48.564;9.302;2024-01-25T13:15:45;14.63;70.14
66119;DHT22;52912;48.564;9.302;2024-01-25T13:18:10;15.02;70.69
66119;DHT22;52912;48.564;9.302;2024-01-25T13:20:35;14.81;71.76
66119;DHT22;52912;48.564;9.302;2024-01-25T13:23:01;15.13;71.04
66119;DHT22;52912;48.564;9.302;2024-01-25T13:25:28;15.19;71.11
66119;DHT22;52912;48.564;9.302;2024-01-25T13:27:53;14.64;71.89
66119;DHT22;52912;48.564;9.302;2024-01-25T13:30:19;15.12;71.68
66119;DHT22;52912;48.564;9.302;2024-01-25T13:32:44;15.03;70.98
66119;DHT22;52912;48.564;9.302;2024-01-25T13:35:09;15.16;71.41
66119;DHT22;52912;48.564;9.302;2024-01-25T13:37:35;15.27;70.65
66119;DHT22;52912;48.564;9.302;2024-01-25T13:40:00;15.09;71.01
66119;DHT22;52912;48.564;9.302;2024-01-25T13:42:27;15.32;70.34
66119;DHT22;52912;48.564;9.302;2024-01-25T13:44:53;14.61;69.94
66119;DHT22;52912;48.564;9.302;2024-01-25T13:47:18;14.23;71.79
66119;DHT22;52912;48.564;9.302;2024-01-25T13:49:44;13.58;72.69
66119;DHT22;52912;48.564;9.302;2024-01-25T13:52:17;13.60;73.45
66119;DHT22;52912;48.564;9.302;2024-01-25T13:54:42;13.40;74.04
66119;DHT22;52912;48.564;9.302;2024-01-25T13:57:08;13.35;74.29
66119;DHT22;52912;48.564;9.302;2024-01-25T13:59:35;13.11;74.76
66119;DHT22;52912;48.564;9.302;2024-01-25T14:02:00;12.92;75.10
66119;DHT22;52912;48.564;9.302;2024-01-25T14:04:25;12.85;75.36
66119;DHT22;52912;48.564;9.302;2024-01-25T14:06:51;13.18;75.39
66119;DHT22;52912;48.564;9.302;2024-01-25T14:09:16;13.19;74.60
66119;DHT22;52912;48.564;9.302;2024-01-25T14:11:42;13.13;75.48
66119;DHT22;52912;48.564;9.302;2024-01-25T14:14:07;13.43;75.21
66119;DHT22;52912;48.564;9.302;2024-01-25T14:16:34;13.44;75.28
66119;DHT22;52912;48.564;9.302;2024-01-25T14:19:00;13.61;74.82
66119;DHT22;52912;48.564;9.302;2024-01-25T14:21:25;13.44;76.21
66119;DHT22;52912;48.564;9.302;2024-01-25T14:23:51;12.85;76.60
66119;DHT22;52912;48.564;9.302;2024-01-25T14:26:16;12.57;77.56
66119;DHT22;52912;48.564;9.302;2024-01-25T14:28:41;12.05;79.02
66119;DHT22;52912;48.564;9.302;2024-01-25T14:31:07;11.94;79.68
66119;DHT22;52912;48.564;9.302;2024-01-25T14:33:34;12.18;79.39
66119;DHT22;52912;48.564;9.302;2024-01-25T14:35:59;11.78;79.80
66119;DHT22;52912;48.564;9.302;2024-01-25T14:38:25;11.64;80.49
66119;DHT22;52912;48.564;9.302;2024-01-25T14:40:50;11.77;80.68
66119;DHT22;52912;48.564;9.302;2024-01-25T14:43:16;11.63;81.01
66119;DHT22;52912;48.564;9.302;2024-01-25T14:45:42;11.66;80.95
66119;DHT22;52912;48.564;9.302;2024-01-25T14:48:07;11.59;80.99
66119;DHT22;52912;48.564;9.302;2024-01-25T14:50:34;11.47;80.93
66119;DHT22;52912;48.564;9.302;2024-01-25T14:52:59;11.37;81.15
66119;DHT22;52912;48.564;9.302;2024-01-25T14:55:25;11.37;81.28
66119;DHT22;52912;48.564;9.302;2024-01-25T14:57:50;11.40;81.57
66119;DHT22;52912;48.564;9.302;2024-01-25T15:00:17;11.27;81.48
66119;DHT22;52912;48.564;9.302;2024-01-25T15:02:42;11.25;81.89
66119;DHT22;52912;48.564;9.302;2024-01-25T15:05:08;11.30;82.13
66119;DHT22;52912;48.564;9.302;2024-01-25T15:07:34;11.12;82.21
66119;DHT22;52912;48.564;9.302;2024-01-25T15:10:00;11.09;82.46
66119;DHT22;52912;48.564;9.302;2024-01-25T15:12:25;11.02;83.12
66119;DHT22;52912;48.564;9.302;2024-01-25T15:14:51;10.98;83.30
66119;DHT22;52912;48.564;9.302;2024-01-25T15:17:16;10.89;83.43
66119;DHT22;52912;48.564;9.302;2024-01-25T15:19:41;10.95;83.60
66119;DHT22;52912;48.564;9.302;2024-01-25T15:22:07;10.82;83.98
66119;DHT22;52912;48.564;9.302;2024-01-25T15:24:34;10.71;84.81
66119;DHT22;52912;48.564;9.302;2024-01-25T15:26:59;10.63;84.96
66119;DHT22;52912;48.564;9.302;2024-01-25T15:29:25;10.72;84.94
66119;DHT22;52912;48.564;9.302;2024-01-25T15:31:50;10.65;85.04